KDAG/DAG METAR and TAF weather

Enter ICAO airport designator
Station Type Date Time Source
KDAG METAR 2020/02/19 10:50 UTC NOAA

KDAG 191050Z AUTO 28005KT 10SM CLR 06/M08 A3001 RMK AO2 SLP152 T00611083


Station Type Date Time Source
KDAG Decoded METAR 2020/02/19 10:50 UTC NOAA

BARSTOW-DAGGETT AIRPORT, CA, United States (KDAG) 34-51N 116-47W 587M
Feb 19, 2020 - 05:50 AM EST / 2020.02.19 1050 UTC
Wind: from the W (280 degrees) at 6 MPH (5 KT):0
Visibility: 10 mile(s):0
Sky conditions: clear
Temperature: 43.0 F (6.1 C)
Dew Point: 17.1 F (-8.3 C)
Relative Humidity: 34%
Pressure (altimeter): 30.01 in. Hg (1016 hPa)
ob: KDAG 191050Z AUTO 28005KT 10SM CLR 06/M08 A3001 RMK AO2 SLP152 T00611083
cycle: 11

Station Type Date Time Source
KDAG TAF 2020/02/19 12:33 UTC NOAA

TAF KDAG 191130Z 1912/2012 27006KT P6SM SCT200
FM191800 33007KT P6SM SKC
FM200300 VRB04KT P6SM SKC

Example: see airport list